BWU weather

Sydney Bankstown Airport
Sydney, New South Wales, Australia

Public forecast

Using degrees Celsius for public forecast. Weather courtesy of forecast.io.

METAR (pilot weather report)

Closest report is Sydney Kingsford Smith International Airport, 9.5 nm (17.6 km) E. Retrieved 2019/02/22 02:30 UTC (14 minutes ago):

YSSY 220230Z 19021KT 9999 VCSH FEW035 SCT070 21/17 Q1020 NOSIG

TAF (pilot weather forecast)

Forecast is more than 12 hours old.

Closest forecast is Sydney Kingsford Smith International Airport, 9.5 nm (17.6 km) E. Retrieved 2019/02/21 00:00 UTC (1 day ago):

TAF YSSY 212321Z 2200/2306 18022KT 9999 -SHRA BKN030 FM220900 17015KT 9999 -SHRA BKN025 FM221500 16013KT 9999 -SHRA FEW010 BKN020 FM222300 17020KT 9999 -SHRA BKN025 FM230100 17025G35KT 9999 -SHRA BKN030 INTER 2212/2224 5000 SHRA BKN010